Time,TemperatureF,DewpointF,PressureIn,WindDirection,WindDirectionDegrees,WindSpeedMPH,WindSpeedGustMPH,Humidity,HourlyPrecipIn,Conditions,Clouds,dailyrainin,SoftwareType,DateUTC
2013-03-31 00:00:00,62.1,58.1,30.03,South,179,3.0,5.0,87,0.00,,,0.00,meteohub,2013-03-31 05:00:00,
2013-03-31 00:05:00,61.9,58.3,30.03,South,173,3.0,5.0,88,0.00,,,0.00,meteohub,2013-03-31 05:05:00,
2013-03-31 00:10:00,61.9,58.3,30.03,SSE,168,0.0,5.0,88,0.00,,,0.00,meteohub,2013-03-31 05:10:00,
2013-03-31 00:15:00,61.7,58.1,30.03,SSE,156,2.0,4.0,88,0.00,,,0.00,meteohub,2013-03-31 05:15:00,
2013-03-31 00:20:00,61.7,58.5,30.02,SSE,156,4.0,4.0,89,0.00,,,0.00,meteohub,2013-03-31 05:20:00,
2013-03-31 00:25:00,61.7,58.5,30.03,SSE,156,2.0,5.0,89,0.00,,,0.00,meteohub,2013-03-31 05:25:00,
2013-03-31 00:31:00,61.5,58.3,30.03,SSE,156,2.0,5.0,89,0.00,,,0.00,meteohub,2013-03-31 05:31:00,
2013-03-31 00:36:00,61.3,58.1,30.03,SSE,156,2.0,5.0,89,0.00,,,0.00,meteohub,2013-03-31 05:36:00,
2013-03-31 00:41:00,61.3,58.1,30.02,SSE,156,3.0,4.0,89,0.00,,,0.00,meteohub,2013-03-31 05:41:00,
2013-03-31 00:46:00,61.5,58.3,30.03,SSE,156,4.0,5.0,89,0.00,,,0.00,meteohub,2013-03-31 05:46:00,
2013-03-31 00:51:00,61.5,58.3,30.02,SSE,156,4.0,5.0,89,0.00,,,0.00,meteohub,2013-03-31 05:51:00,
2013-03-31 00:56:00,61.3,58.5,30.02,SSE,156,2.0,5.0,90,0.00,,,0.00,meteohub,2013-03-31 05:56:00,
2013-03-31 01:01:00,61.5,58.6,30.02,SSE,156,3.0,5.0,90,0.00,,,0.00,meteohub,2013-03-31 06:01:00,
2013-03-31 01:06:00,61.3,58.5,30.02,SSE,156,3.0,4.0,90,0.00,,,0.00,meteohub,2013-03-31 06:06:00,
2013-03-31 01:11:00,61.3,58.5,30.02,SSE,156,0.0,4.0,90,0.00,,,0.00,meteohub,2013-03-31 06:11:00,
2013-03-31 01:16:00,61.2,58.3,30.02,SSE,156,2.0,3.0,90,0.00,,,0.00,meteohub,2013-03-31 06:16:00,
2013-03-31 01:21:00,61.2,58.3,30.02,SSE,156,2.0,3.0,90,0.00,,,0.00,meteohub,2013-03-31 06:21:00,
2013-03-31 01:26:00,61.3,58.6,30.02,SSE,156,1.0,4.0,91,0.00,,,0.00,meteohub,2013-03-31 06:26:00,
2013-03-31 01:31:00,61.3,58.6,30.01,SSE,155,3.0,4.0,91,0.00,,,0.00,meteohub,2013-03-31 06:31:00,
2013-03-31 01:36:00,61.3,58.6,30.01,SSE,155,3.0,4.0,91,0.00,,,0.00,meteohub,2013-03-31 06:36:00,
2013-03-31 01:41:00,61.5,58.8,30.01,SSE,155,4.0,5.0,91,0.00,,,0.00,meteohub,2013-03-31 06:41:00,
2013-03-31 01:46:00,61.3,58.6,30.01,SSE,155,5.0,6.0,91,0.00,,,0.00,meteohub,2013-03-31 06:46:00,
2013-03-31 01:51:00,61.3,58.6,30.01,SSE,155,5.0,6.0,91,0.00,,,0.00,meteohub,2013-03-31 06:51:00,
2013-03-31 01:56:00,61.3,58.6,30.01,SSE,155,4.0,6.0,91,0.00,,,0.00,meteohub,2013-03-31 06:56:00,
2013-03-31 02:01:00,61.3,58.6,30.01,SSE,155,4.0,6.0,91,0.00,,,0.00,meteohub,2013-03-31 07:01:00,
2013-03-31 02:06:00,61.3,58.6,30.01,SSE,155,4.0,6.0,91,0.00,,,0.00,meteohub,2013-03-31 07:06:00,
2013-03-31 02:11:00,61.3,58.6,30.01,SSE,155,5.0,5.0,91,0.00,,,0.00,meteohub,2013-03-31 07:11:00,
2013-03-31 02:17:00,61.3,58.6,30.01,SSE,155,5.0,6.0,91,0.00,,,0.00,meteohub,2013-03-31 07:17:00,
2013-03-31 02:22:00,61.5,59.2,30.01,SSE,154,5.0,6.0,92,0.00,,,0.00,meteohub,2013-03-31 07:22:00,
2013-03-31 02:27:00,61.5,59.2,30.01,SSE,155,5.0,6.0,92,0.00,,,0.00,meteohub,2013-03-31 07:27:00,
2013-03-31 02:32:00,61.3,59.0,30.00,SSE,155,4.0,6.0,92,0.00,,,0.00,meteohub,2013-03-31 07:32:00,
2013-03-31 02:37:00,61.3,59.0,30.01,SSE,155,4.0,6.0,92,0.00,,,0.00,meteohub,2013-03-31 07:37:00,
2013-03-31 02:42:00,61.3,59.0,30.01,SSE,154,3.0,5.0,92,0.00,,,0.00,meteohub,2013-03-31 07:42:00,
2013-03-31 02:47:00,61.2,58.8,30.01,SSE,155,3.0,5.0,92,0.00,,,0.00,meteohub,2013-03-31 07:47:00,
2013-03-31 02:52:00,61.2,58.8,30.01,SSE,155,3.0,5.0,92,0.00,,,0.00,meteohub,2013-03-31 07:52:00,
2013-03-31 02:57:00,61.2,58.8,30.00,SSE,154,2.0,4.0,92,0.00,,,0.00,meteohub,2013-03-31 07:57:00,
2013-03-31 03:02:00,61.2,58.8,30.00,SSE,155,2.0,4.0,92,0.00,,,0.00,meteohub,2013-03-31 08:02:00,
2013-03-31 03:07:00,61.2,58.8,30.00,SSE,155,1.0,4.0,92,0.00,,,0.00,meteohub,2013-03-31 08:07:00,
2013-03-31 03:12:00,61.2,58.8,30.00,SSE,155,0.0,3.0,92,0.00,,,0.00,meteohub,2013-03-31 08:12:00,
2013-03-31 03:17:00,61.0,58.6,30.00,SSE,155,0.0,2.0,92,0.00,,,0.00,meteohub,2013-03-31 08:17:00,
2013-03-31 03:22:00,61.0,58.6,30.00,SSE,155,0.0,2.0,92,0.00,,,0.00,meteohub,2013-03-31 08:22:00,
2013-03-31 03:27:00,61.0,58.6,30.00,SSE,155,0.0,0.0,92,0.00,,,0.00,meteohub,2013-03-31 08:27:00,
2013-03-31 03:32:00,61.2,58.8,30.00,SSE,155,0.0,0.0,92,0.00,,,0.00,meteohub,2013-03-31 08:32:00,
2013-03-31 03:37:00,61.2,58.8,30.00,SSE,154,0.0,0.0,92,0.00,,,0.00,meteohub,2013-03-31 08:37:00,
2013-03-31 03:42:00,61.2,58.8,30.00,SSE,154,0.0,0.0,92,0.00,,,0.00,meteohub,2013-03-31 08:42:00,
2013-03-31 03:47:00,61.2,58.8,30.00,SSE,154,0.0,0.0,92,0.00,,,0.00,meteohub,2013-03-31 08:47:00,
2013-03-31 03:52:00,61.2,58.8,30.00,South,169,1.0,0.0,92,0.00,,,0.00,meteohub,2013-03-31 08:52:00,
2013-03-31 03:57:00,61.2,58.8,30.00,South,169,0.0,4.0,92,0.00,,,0.00,meteohub,2013-03-31 08:57:00,
2013-03-31 04:02:00,61.0,59.0,30.00,South,169,4.0,4.0,93,0.00,,,0.00,meteohub,2013-03-31 09:02:00,
2013-03-31 04:07:00,61.0,59.0,29.99,South,169,5.0,5.0,93,0.00,,,0.00,meteohub,2013-03-31 09:07:00,
2013-03-31 04:12:00,61.0,58.6,29.99,South,169,4.0,5.0,92,0.00,,,0.00,meteohub,2013-03-31 09:12:00,
2013-03-31 04:17:00,61.0,58.6,29.99,South,169,5.0,6.0,92,0.00,,,0.00,meteohub,2013-03-31 09:17:00,
2013-03-31 04:22:00,61.0,58.6,29.99,South,170,5.0,6.0,92,0.00,,,0.00,meteohub,2013-03-31 09:22:00,
2013-03-31 04:27:00,61.0,59.0,29.99,South,170,3.0,6.0,93,0.00,,,0.00,meteohub,2013-03-31 09:27:00,
2013-03-31 04:32:00,61.0,59.0,29.99,South,171,0.0,6.0,93,0.00,,,0.00,meteohub,2013-03-31 09:32:00,
2013-03-31 04:37:00,60.8,58.8,29.99,South,171,0.0,6.0,93,0.00,,,0.00,meteohub,2013-03-31 09:37:00,
2013-03-31 04:42:00,61.0,59.0,29.99,South,171,1.0,6.0,93,0.00,,,0.00,meteohub,2013-03-31 09:42:00,
2013-03-31 04:48:00,61.0,59.0,29.99,South,171,3.0,4.0,93,0.00,,,0.00,meteohub,2013-03-31 09:48:00,
2013-03-31 04:53:00,61.0,59.0,29.99,South,171,2.0,4.0,93,0.00,,,0.00,meteohub,2013-03-31 09:53:00,
2013-03-31 04:58:00,61.0,59.0,29.99,South,171,3.0,4.0,93,0.00,,,0.00,meteohub,2013-03-31 09:58:00,
2013-03-31 05:03:00,60.8,58.8,29.99,South,171,3.0,4.0,93,0.00,,,0.00,meteohub,2013-03-31 10:03:00,
2013-03-31 05:08:00,60.8,58.8,29.99,South,171,6.0,6.0,93,0.00,,,0.00,meteohub,2013-03-31 10:08:00,
2013-03-31 05:13:00,60.8,58.8,29.99,South,171,2.0,6.0,93,0.00,,,0.00,meteohub,2013-03-31 10:13:00,
2013-03-31 05:18:00,60.6,58.6,29.99,South,171,2.0,6.0,93,0.00,,,0.00,meteohub,2013-03-31 10:18:00,
2013-03-31 05:23:00,60.6,58.6,29.99,South,171,2.0,6.0,93,0.00,,,0.00,meteohub,2013-03-31 10:23:00,
2013-03-31 05:28:00,60.6,58.6,29.98,South,171,1.0,6.0,93,0.00,,,0.00,meteohub,2013-03-31 10:28:00,
2013-03-31 05:33:00,60.6,58.6,29.99,South,171,3.0,4.0,93,0.00,,,0.00,meteohub,2013-03-31 10:33:00,
2013-03-31 05:38:00,60.8,58.8,29.98,South,174,3.0,4.0,93,0.00,,,0.00,meteohub,2013-03-31 10:38:00,
2013-03-31 05:43:00,60.8,58.8,29.98,South,174,4.0,4.0,93,0.00,,,0.00,meteohub,2013-03-31 10:43:00,
2013-03-31 05:48:00,60.6,58.6,29.99,South,174,5.0,6.0,93,0.00,,,0.00,meteohub,2013-03-31 10:48:00,
2013-03-31 05:53:00,60.6,58.6,29.99,South,174,5.0,6.0,93,0.00,,,0.00,meteohub,2013-03-31 10:53:00,
2013-03-31 05:58:00,60.6,58.6,29.99,South,176,4.0,7.0,93,0.00,,,0.00,meteohub,2013-03-31 10:58:00,
2013-03-31 06:03:00,60.4,58.5,29.99,South,176,5.0,7.0,93,0.00,,,0.00,meteohub,2013-03-31 11:03:00,
2013-03-31 06:08:00,60.4,58.5,29.99,South,176,5.0,7.0,93,0.00,,,0.00,meteohub,2013-03-31 11:08:00,
2013-03-31 06:13:00,60.1,58.1,29.99,South,171,6.0,6.0,93,0.00,,,0.00,meteohub,2013-03-31 11:13:00,
2013-03-31 06:18:00,60.3,58.3,29.99,South,171,6.0,6.0,93,0.00,,,0.00,meteohub,2013-03-31 11:18:00,
2013-03-31 06:23:00,60.4,58.5,29.99,SSE,160,5.0,7.0,93,0.00,,,0.00,meteohub,2013-03-31 11:23:00,
2013-03-31 06:28:00,60.3,58.3,29.99,SSE,150,4.0,7.0,93,0.00,,,0.00,meteohub,2013-03-31 11:28:00,
2013-03-31 06:33:00,60.3,58.3,29.99,SSE,155,4.0,7.0,93,0.00,,,0.00,meteohub,2013-03-31 11:33:00,
2013-03-31 06:38:00,60.3,58.3,29.99,SSE,155,7.0,7.0,93,0.00,,,0.00,meteohub,2013-03-31 11:38:00,
2013-03-31 06:43:00,60.6,58.6,29.99,SSE,167,6.0,7.0,93,0.00,,,0.00,meteohub,2013-03-31 11:43:00,
2013-03-31 06:48:00,60.6,58.6,29.99,South,175,6.0,8.0,93,0.00,,,0.00,meteohub,2013-03-31 11:48:00,
2013-03-31 06:53:00,60.6,58.6,29.99,South,176,7.0,8.0,93,0.00,,,0.00,meteohub,2013-03-31 11:53:00,
2013-03-31 06:58:00,61.0,59.0,29.99,South,176,7.0,8.0,93,0.00,,,0.00,meteohub,2013-03-31 11:58:00,
2013-03-31 07:03:00,61.0,59.0,29.99,South,176,6.0,8.0,93,0.00,,,0.00,meteohub,2013-03-31 12:03:00,
2013-03-31 07:08:00,61.2,59.2,29.99,South,177,2.0,8.0,93,0.00,,,0.00,meteohub,2013-03-31 12:08:00,
2013-03-31 07:13:00,61.2,59.2,29.99,South,177,2.0,8.0,93,0.00,,,0.00,meteohub,2013-03-31 12:13:00,
2013-03-31 07:18:00,61.2,59.4,29.99,South,177,2.0,8.0,94,0.00,,,0.00,meteohub,2013-03-31 12:18:00,
2013-03-31 07:23:00,61.3,59.5,30.00,South,177,3.0,6.0,94,0.00,,,0.00,meteohub,2013-03-31 12:23:00,
2013-03-31 07:28:00,61.5,59.7,29.99,South,178,4.0,5.0,94,0.00,,,0.00,meteohub,2013-03-31 12:28:00,
2013-03-31 07:33:00,61.5,59.5,29.99,South,179,5.0,5.0,93,0.00,,,0.00,meteohub,2013-03-31 12:33:00,
2013-03-31 07:39:00,61.5,59.5,29.99,South,179,6.0,6.0,93,0.00,,,0.00,meteohub,2013-03-31 12:39:00,
2013-03-31 07:44:00,61.3,59.5,29.99,South,178,7.0,8.0,94,0.00,,,0.00,meteohub,2013-03-31 12:44:00,
2013-03-31 07:49:00,61.5,59.7,29.99,South,178,6.0,8.0,94,0.00,,,0.00,meteohub,2013-03-31 12:49:00,
2013-03-31 07:54:00,61.5,59.5,29.99,South,178,6.0,8.0,93,0.00,,,0.00,meteohub,2013-03-31 12:54:00,
2013-03-31 07:59:00,61.7,59.7,29.99,South,178,4.0,8.0,93,0.00,,,0.00,meteohub,2013-03-31 12:59:00,
2013-03-31 08:04:00,61.7,59.7,29.98,South,187,5.0,8.0,93,0.00,,,0.00,meteohub,2013-03-31 13:04:00,
2013-03-31 08:09:00,61.7,59.7,29.99,South,179,3.0,8.0,93,0.00,,,0.00,meteohub,2013-03-31 13:09:00,
2013-03-31 08:14:00,61.9,59.9,29.99,South,180,4.0,7.0,93,0.00,,,0.00,meteohub,2013-03-31 13:14:00,
2013-03-31 08:19:00,62.1,60.3,29.99,South,187,4.0,7.0,94,0.00,,,0.00,meteohub,2013-03-31 13:19:00,
2013-03-31 08:24:00,62.1,60.3,29.99,South,183,5.0,7.0,94,0.00,,,0.00,meteohub,2013-03-31 13:24:00,
2013-03-31 08:29:00,62.2,60.4,29.99,South,185,5.0,7.0,94,0.00,,,0.00,meteohub,2013-03-31 13:29:00,
2013-03-31 08:34:00,62.4,60.6,29.99,SSW,192,4.0,7.0,94,0.00,,,0.00,meteohub,2013-03-31 13:34:00,
2013-03-31 08:39:00,62.6,60.8,29.99,SSW,201,8.0,8.0,94,0.00,,,0.00,meteohub,2013-03-31 13:39:00,
2013-03-31 08:44:00,63.0,61.2,29.99,SSW,197,7.0,8.0,94,0.00,,,0.00,meteohub,2013-03-31 13:44:00,
2013-03-31 08:49:00,63.0,61.2,29.99,SSW,200,6.0,11.0,94,0.00,,,0.00,meteohub,2013-03-31 13:49:00,
2013-03-31 08:54:00,63.0,61.2,29.99,SSW,204,5.0,11.0,94,0.00,,,0.00,meteohub,2013-03-31 13:54:00,
2013-03-31 08:59:00,63.0,61.2,29.99,SW,219,10.0,10.0,94,0.00,,,0.00,meteohub,2013-03-31 13:59:00,
2013-03-31 09:04:00,63.1,61.3,29.99,SSW,196,5.0,11.0,94,0.00,,,0.00,meteohub,2013-03-31 14:04:00,
2013-03-31 09:09:00,63.1,61.3,29.99,South,181,5.0,11.0,94,0.00,,,0.00,meteohub,2013-03-31 14:09:00,
2013-03-31 09:14:00,63.1,61.3,29.99,South,188,4.0,10.0,94,0.00,,,0.00,meteohub,2013-03-31 14:14:00,
2013-03-31 09:19:00,63.0,61.2,29.99,South,188,2.0,10.0,94,0.00,,,0.00,meteohub,2013-03-31 14:19:00,
2013-03-31 09:24:00,63.0,61.2,29.99,South,188,5.0,7.0,94,0.00,,,0.00,meteohub,2013-03-31 14:24:00,
2013-03-31 09:29:00,63.0,61.2,29.99,South,185,4.0,7.0,94,0.00,,,0.00,meteohub,2013-03-31 14:29:00,
2013-03-31 09:34:00,63.0,61.2,29.99,South,183,3.0,7.0,94,0.00,,,0.00,meteohub,2013-03-31 14:34:00,
2013-03-31 09:39:00,63.1,61.3,29.99,South,187,4.0,7.0,94,0.00,,,0.00,meteohub,2013-03-31 14:39:00,
2013-03-31 09:44:00,63.1,61.3,29.99,South,191,11.0,11.0,94,0.00,,,0.00,meteohub,2013-03-31 14:44:00,
2013-03-31 09:49:00,63.3,61.5,29.99,SSW,192,5.0,11.0,94,0.00,,,0.00,meteohub,2013-03-31 14:49:00,
2013-03-31 09:54:00,63.3,61.5,29.99,SSW,194,11.0,12.0,94,0.00,,,0.00,meteohub,2013-03-31 14:54:00,
2013-03-31 09:59:00,63.7,61.9,29.99,South,190,5.0,13.0,94,0.00,,,0.00,meteohub,2013-03-31 14:59:00,
2013-03-31 10:04:00,63.7,61.9,29.99,SSW,201,8.0,13.0,94,0.00,,,0.00,meteohub,2013-03-31 15:04:00,
2013-03-31 10:09:00,63.7,61.9,29.99,SSW,205,10.0,13.0,94,0.00,,,0.00,meteohub,2013-03-31 15:09:00,
2013-03-31 10:14:00,63.7,61.9,29.99,SSW,197,11.0,12.0,94,0.00,,,0.00,meteohub,2013-03-31 15:14:00,
2013-03-31 10:19:00,63.9,62.1,29.99,South,187,5.0,14.0,94,0.00,,,0.00,meteohub,2013-03-31 15:19:00,
2013-03-31 10:24:00,63.9,62.1,29.99,SSW,196,7.0,14.0,94,0.00,,,0.00,meteohub,2013-03-31 15:24:00,
2013-03-31 10:29:00,64.0,62.2,29.99,SSW,201,4.0,14.0,94,0.00,,,0.00,meteohub,2013-03-31 15:29:00,
2013-03-31 10:35:00,64.0,62.2,29.99,SSW,198,6.0,14.0,94,0.00,,,0.00,meteohub,2013-03-31 15:35:00,
2013-03-31 10:40:00,64.0,62.2,29.99,South,177,7.0,14.0,94,0.00,,,0.00,meteohub,2013-03-31 15:40:00,
2013-03-31 10:45:00,64.0,62.2,29.99,SSW,192,5.0,11.0,94,0.00,,,0.00,meteohub,2013-03-31 15:45:00,
2013-03-31 10:50:00,63.9,61.9,30.00,South,189,7.0,11.0,93,0.00,,,0.00,meteohub,2013-03-31 15:50:00,
2013-03-31 10:55:00,64.2,62.4,30.00,SSW,211,5.0,11.0,94,0.00,,,0.00,meteohub,2013-03-31 15:55:00,
2013-03-31 11:00:00,64.4,62.4,29.99,SSW,206,7.0,11.0,93,0.00,,,0.00,meteohub,2013-03-31 16:00:00,
2013-03-31 11:05:00,64.6,62.8,29.99,South,187,3.0,10.0,94,0.00,,,0.00,meteohub,2013-03-31 16:05:00,
2013-03-31 11:10:00,64.8,62.6,29.99,SSW,211,5.0,14.0,93,0.00,,,0.00,meteohub,2013-03-31 16:10:00,
2013-03-31 11:15:00,64.9,62.8,29.99,SW,230,9.0,14.0,93,0.00,,,0.00,meteohub,2013-03-31 16:15:00,
2013-03-31 11:20:00,65.3,63.1,29.99,SW,215,5.0,14.0,93,0.00,,,0.00,meteohub,2013-03-31 16:20:00,
2013-03-31 11:25:00,65.5,63.3,29.99,SSW,212,8.0,12.0,93,0.00,,,0.00,meteohub,2013-03-31 16:25:00,
2013-03-31 11:30:00,65.8,63.5,29.99,SW,229,2.0,12.0,92,0.00,,,0.00,meteohub,2013-03-31 16:30:00,
2013-03-31 11:35:00,66.0,63.7,29.99,SSW,192,0.0,12.0,92,0.00,,,0.00,meteohub,2013-03-31 16:35:00,
2013-03-31 11:40:00,66.0,63.3,29.99,South,180,2.0,12.0,91,0.00,,,0.00,meteohub,2013-03-31 16:40:00,
2013-03-31 11:45:00,66.0,63.3,29.99,SSE,157,3.0,12.0,91,0.00,,,0.00,meteohub,2013-03-31 16:45:00,
2013-03-31 11:50:00,65.8,62.8,29.98,South,184,5.0,8.0,90,0.00,,,0.00,meteohub,2013-03-31 16:50:00,
2013-03-31 11:55:00,65.7,62.6,29.98,South,183,4.0,7.0,90,0.00,,,0.00,meteohub,2013-03-31 16:55:00,
2013-03-31 12:00:00,66.2,63.1,29.97,South,174,4.0,8.0,90,0.00,,,0.00,meteohub,2013-03-31 17:00:00,
2013-03-31 12:05:00,66.4,63.0,29.97,South,184,5.0,8.0,89,0.00,,,0.00,meteohub,2013-03-31 17:05:00,
2013-03-31 12:10:00,66.9,63.5,29.97,SW,217,11.0,11.0,89,0.00,,,0.00,meteohub,2013-03-31 17:10:00,
2013-03-31 12:15:00,67.8,63.9,29.97,SSW,202,14.0,14.0,87,0.00,,,0.00,meteohub,2013-03-31 17:15:00,
2013-03-31 12:20:00,69.1,64.4,29.97,SW,217,3.0,14.0,85,0.00,,,0.00,meteohub,2013-03-31 17:20:00,
2013-03-31 12:25:00,69.6,64.2,29.97,South,182,7.0,18.0,83,0.00,,,0.00,meteohub,2013-03-31 17:25:00,
2013-03-31 12:30:00,69.8,64.4,29.97,South,187,4.0,18.0,83,0.00,,,0.00,meteohub,2013-03-31 17:30:00,
2013-03-31 12:35:00,70.0,64.2,29.97,SSE,158,4.0,18.0,82,0.00,,,0.00,meteohub,2013-03-31 17:35:00,
2013-03-31 12:40:00,70.0,63.9,29.96,South,183,11.0,14.0,81,0.00,,,0.00,meteohub,2013-03-31 17:40:00,
2013-03-31 12:45:00,70.3,63.9,29.96,South,185,11.0,16.0,80,0.00,,,0.00,meteohub,2013-03-31 17:45:00,
2013-03-31 12:50:00,70.5,64.0,29.96,SSW,194,5.0,16.0,80,0.00,,,0.00,meteohub,2013-03-31 17:50:00,
2013-03-31 12:55:00,70.9,64.4,29.96,South,175,8.0,14.0,80,0.00,,,0.00,meteohub,2013-03-31 17:55:00,
2013-03-31 13:00:00,71.4,64.6,29.96,SSW,209,8.0,13.0,79,0.00,,,0.00,meteohub,2013-03-31 18:00:00,
2013-03-31 13:05:00,72.1,64.9,29.96,South,190,12.0,17.0,78,0.00,,,0.00,meteohub,2013-03-31 18:05:00,
2013-03-31 13:10:00,72.5,64.6,29.96,SW,221,8.0,19.0,76,0.00,,,0.00,meteohub,2013-03-31 18:10:00,
2013-03-31 13:15:00,73.0,64.2,29.96,SW,218,10.0,20.0,74,0.00,,,0.00,meteohub,2013-03-31 18:15:00,
2013-03-31 13:20:00,73.4,64.2,29.95,SSW,209,15.0,22.0,73,0.00,,,0.00,meteohub,2013-03-31 18:20:00,
2013-03-31 13:25:00,73.6,64.0,29.95,SSW,202,12.0,22.0,72,0.00,,,0.00,meteohub,2013-03-31 18:25:00,
2013-03-31 13:30:00,73.8,64.2,29.95,SSW,212,14.0,19.0,72,0.00,,,0.00,meteohub,2013-03-31 18:30:00,
2013-03-31 13:35:00,74.3,64.2,29.94,SSW,211,17.0,24.0,71,0.00,,,0.00,meteohub,2013-03-31 18:35:00,
2013-03-31 13:40:00,74.3,64.2,29.94,SSW,204,14.0,24.0,71,0.00,,,0.00,meteohub,2013-03-31 18:40:00,
2013-03-31 13:46:00,74.5,64.0,29.94,SSW,194,12.0,24.0,70,0.00,,,0.00,meteohub,2013-03-31 18:46:00,
2013-03-31 13:51:00,74.7,64.6,29.94,WSW,247,13.0,20.0,71,0.00,,,0.00,meteohub,2013-03-31 18:51:00,
2013-03-31 13:56:00,75.0,64.6,29.94,SW,218,13.0,20.0,70,0.00,,,0.00,meteohub,2013-03-31 18:56:00,
2013-03-31 14:01:00,75.2,64.4,29.94,WSW,239,24.0,24.0,69,0.00,,,0.00,meteohub,2013-03-31 19:01:00,
2013-03-31 14:06:00,75.0,64.2,29.94,SW,230,21.0,26.0,69,0.00,,,0.00,meteohub,2013-03-31 19:06:00,
2013-03-31 14:11:00,75.0,64.2,29.94,SSW,193,16.0,26.0,69,0.00,,,0.00,meteohub,2013-03-31 19:11:00,
2013-03-31 14:16:00,74.8,64.4,29.93,South,189,12.0,26.0,70,0.00,,,0.00,meteohub,2013-03-31 19:16:00,
2013-03-31 14:21:00,74.8,64.0,29.93,SW,217,13.0,23.0,69,0.00,,,0.00,meteohub,2013-03-31 19:21:00,
2013-03-31 14:26:00,74.8,64.0,29.93,SSW,208,15.0,23.0,69,0.00,,,0.00,meteohub,2013-03-31 19:26:00,
2013-03-31 14:31:00,74.8,64.0,29.92,SSW,194,16.0,21.0,69,0.00,,,0.00,meteohub,2013-03-31 19:31:00,
2013-03-31 14:37:00,74.7,64.6,29.92,South,190,12.0,21.0,71,0.00,,,0.00,meteohub,2013-03-31 19:37:00,
2013-03-31 14:42:00,74.5,64.4,29.92,SSW,202,12.0,21.0,71,0.00,,,0.00,meteohub,2013-03-31 19:42:00,
2013-03-31 14:47:00,74.5,64.0,29.92,SSW,202,15.0,21.0,70,0.00,,,0.00,meteohub,2013-03-31 19:47:00,
2013-03-31 14:52:00,74.7,64.2,29.91,SW,224,8.0,21.0,70,0.00,,,0.00,meteohub,2013-03-31 19:52:00,
2013-03-31 14:57:00,74.8,64.4,29.91,SW,215,8.0,21.0,70,0.00,,,0.00,meteohub,2013-03-31 19:57:00,
2013-03-31 15:02:00,74.7,64.6,29.91,SSW,208,15.0,19.0,71,0.00,,,0.00,meteohub,2013-03-31 20:02:00,
2013-03-31 15:07:00,74.7,65.1,29.92,SW,227,11.0,19.0,72,0.00,,,0.00,meteohub,2013-03-31 20:07:00,
2013-03-31 15:12:00,74.3,65.5,29.94,WNW,291,9.0,19.0,74,0.00,,,0.00,meteohub,2013-03-31 20:12:00,
2013-03-31 15:17:00,69.4,58.8,29.96,NW,318,13.0,30.0,69,0.00,,,0.00,meteohub,2013-03-31 20:17:00,
2013-03-31 15:22:00,63.1,56.8,29.96,NNE,28,14.0,37.0,80,0.00,,,0.00,meteohub,2013-03-31 20:22:00,
2013-03-31 15:27:00,61.0,56.5,29.99,WNW,294,10.0,37.0,85,0.01,,,0.01,meteohub,2013-03-31 20:27:00,
2013-03-31 15:32:00,60.1,56.1,29.99,WNW,282,8.0,29.0,87,0.01,,,0.01,meteohub,2013-03-31 20:32:00,
2013-03-31 15:37:00,59.2,55.6,29.97,NE,44,11.0,28.0,88,0.01,,,0.01,meteohub,2013-03-31 20:37:00,
2013-03-31 15:42:00,59.2,55.6,29.98,WNW,290,11.0,28.0,88,0.01,,,0.01,meteohub,2013-03-31 20:42:00,
2013-03-31 15:47:00,59.2,55.9,29.97,North,1,8.0,25.0,89,0.02,,,0.02,meteohub,2013-03-31 20:47:00,
2013-03-31 15:52:00,59.2,55.9,29.98,NNW,334,2.0,23.0,89,0.02,,,0.02,meteohub,2013-03-31 20:52:00,
2013-03-31 15:57:00,59.2,55.9,29.98,NNE,21,10.0,23.0,89,0.02,,,0.02,meteohub,2013-03-31 20:57:00,
2013-03-31 16:02:00,59.2,55.9,29.99,NE,36,7.0,20.0,89,0.02,,,0.02,meteohub,2013-03-31 21:02:00,
2013-03-31 16:07:00,59.2,55.9,29.99,NNE,19,8.0,17.0,89,0.03,,,0.03,meteohub,2013-03-31 21:07:00,
2013-03-31 16:12:00,58.6,55.4,29.99,NNW,335,9.0,17.0,89,0.03,,,0.03,meteohub,2013-03-31 21:12:00,
2013-03-31 16:17:00,58.6,55.4,29.98,NNE,29,4.0,17.0,89,0.03,,,0.03,meteohub,2013-03-31 21:17:00,
2013-03-31 16:22:00,58.8,55.6,29.98,North,0,4.0,17.0,89,0.03,,,0.03,meteohub,2013-03-31 21:22:00,
2013-03-31 16:28:00,58.8,55.6,29.98,NNE,25,5.0,17.0,89,0.02,,,0.03,meteohub,2013-03-31 21:28:00,
2013-03-31 16:33:00,59.2,55.9,29.98,North,4,12.0,13.0,89,0.02,,,0.03,meteohub,2013-03-31 21:33:00,
2013-03-31 16:38:00,59.4,55.8,29.98,NNE,31,6.0,12.0,88,0.02,,,0.03,meteohub,2013-03-31 21:38:00,
2013-03-31 16:43:00,59.4,55.8,29.98,NE,36,2.0,12.0,88,0.03,,,0.04,meteohub,2013-03-31 21:43:00,
2013-03-31 16:48:00,59.2,55.6,29.97,NE,34,1.0,12.0,88,0.02,,,0.04,meteohub,2013-03-31 21:48:00,
2013-03-31 16:53:00,59.2,55.6,29.97,NE,42,1.0,10.0,88,0.02,,,0.04,meteohub,2013-03-31 21:53:00,
2013-03-31 16:58:00,59.4,55.8,29.96,NE,38,3.0,8.0,88,0.02,,,0.04,meteohub,2013-03-31 21:58:00,
2013-03-31 17:03:00,59.4,55.8,29.97,NE,40,0.0,8.0,88,0.02,,,0.04,meteohub,2013-03-31 22:03:00,
2013-03-31 17:08:00,59.4,55.8,29.97,NE,53,4.0,8.0,88,0.01,,,0.04,meteohub,2013-03-31 22:08:00,
2013-03-31 17:13:00,59.4,55.8,29.96,ENE,62,5.0,7.0,88,0.01,,,0.04,meteohub,2013-03-31 22:13:00,
2013-03-31 17:18:00,59.4,55.8,29.96,ENE,66,7.0,7.0,88,0.01,,,0.04,meteohub,2013-03-31 22:18:00,
2013-03-31 17:23:00,59.2,55.6,29.96,East,79,7.0,9.0,88,0.01,,,0.04,meteohub,2013-03-31 22:23:00,
2013-03-31 17:28:00,59.2,55.6,29.96,ENE,75,7.0,9.0,88,0.02,,,0.05,meteohub,2013-03-31 22:28:00,
2013-03-31 17:33:00,59.2,55.9,29.97,ENE,67,0.0,9.0,89,0.02,,,0.05,meteohub,2013-03-31 22:33:00,
2013-03-31 17:38:00,59.4,56.1,29.97,ENE,67,4.0,8.0,89,0.02,,,0.05,meteohub,2013-03-31 22:38:00,
2013-03-31 17:43:00,59.4,56.1,29.97,ENE,69,4.0,8.0,89,0.01,,,0.05,meteohub,2013-03-31 22:43:00,
2013-03-31 17:48:00,59.4,56.1,29.95,ESE,115,7.0,7.0,89,0.01,,,0.05,meteohub,2013-03-31 22:48:00,
2013-03-31 17:53:00,59.2,55.9,29.92,SE,143,11.0,11.0,89,0.01,,,0.05,meteohub,2013-03-31 22:53:00,
2013-03-31 17:58:00,59.2,55.9,29.91,SSE,152,8.0,13.0,89,0.01,,,0.05,meteohub,2013-03-31 22:58:00,
2013-03-31 18:03:00,59.2,55.9,29.89,SSE,161,18.0,18.0,89,0.01,,,0.05,meteohub,2013-03-31 23:03:00,
2013-03-31 18:08:00,59.0,56.1,29.90,SE,131,5.0,18.0,90,0.01,,,0.05,meteohub,2013-03-31 23:08:00,
2013-03-31 18:13:00,58.8,55.9,29.91,East,98,5.0,18.0,90,0.01,,,0.05,meteohub,2013-03-31 23:13:00,
2013-03-31 18:18:00,59.0,56.1,29.91,ESE,117,9.0,18.0,90,0.01,,,0.05,meteohub,2013-03-31 23:18:00,
2013-03-31 18:23:00,59.2,56.3,29.91,ESE,117,7.0,17.0,90,0.01,,,0.05,meteohub,2013-03-31 23:23:00,
2013-03-31 18:28:00,59.0,56.1,29.90,SE,140,5.0,12.0,90,0.01,,,0.06,meteohub,2013-03-31 23:28:00,
2013-03-31 18:33:00,59.0,56.1,29.90,SE,144,4.0,12.0,90,0.01,,,0.06,meteohub,2013-03-31 23:33:00,
2013-03-31 18:38:00,58.8,56.5,29.90,South,176,10.0,11.0,92,0.01,,,0.06,meteohub,2013-03-31 23:38:00,
2013-03-31 18:43:00,58.6,55.8,29.90,SSE,167,10.0,14.0,90,0.01,,,0.06,meteohub,2013-03-31 23:43:00,
2013-03-31 18:48:00,58.5,55.6,29.90,SSE,159,6.0,14.0,90,0.01,,,0.06,meteohub,2013-03-31 23:48:00,
2013-03-31 18:53:00,58.3,55.4,29.90,SSE,151,4.0,14.0,90,0.01,,,0.06,meteohub,2013-03-31 23:53:00,
2013-03-31 18:59:00,58.3,55.4,29.90,SSE,150,6.0,13.0,90,0.01,,,0.06,meteohub,2013-03-31 23:59:00,
2013-03-31 19:04:00,58.3,55.6,29.89,SSE,165,8.0,9.0,91,0.01,,,0.06,meteohub,2013-04-01 00:04:00,
2013-03-31 19:09:00,58.5,55.8,29.89,South,175,8.0,8.0,91,0.01,,,0.06,meteohub,2013-04-01 00:09:00,
2013-03-31 19:14:00,58.3,55.6,29.89,South,175,9.0,10.0,91,0.01,,,0.06,meteohub,2013-04-01 00:14:00,
2013-03-31 19:19:00,57.7,54.9,29.89,South,178,6.0,11.0,90,0.01,,,0.06,meteohub,2013-04-01 00:19:00,
2013-03-31 19:24:00,57.6,55.0,29.89,SSW,192,3.0,11.0,91,0.01,,,0.06,meteohub,2013-04-01 00:24:00,
2013-03-31 19:29:00,57.9,55.2,29.89,South,181,4.0,11.0,91,0.01,,,0.07,meteohub,2013-04-01 00:29:00,
2013-03-31 19:34:00,58.1,55.4,29.89,South,185,2.0,10.0,91,0.01,,,0.07,meteohub,2013-04-01 00:34:00,
2013-03-31 19:39:00,58.1,55.4,29.89,South,186,4.0,9.0,91,0.01,,,0.07,meteohub,2013-04-01 00:39:00,
2013-03-31 19:44:00,57.7,55.2,29.90,South,186,0.0,7.0,91,0.01,,,0.07,meteohub,2013-04-01 00:44:00,
2013-03-31 19:49:00,57.6,54.7,29.91,South,186,0.0,7.0,90,0.01,,,0.07,meteohub,2013-04-01 00:49:00,
2013-03-31 19:54:00,57.6,55.0,29.92,South,186,0.0,6.0,91,0.01,,,0.07,meteohub,2013-04-01 00:54:00,
2013-03-31 19:59:00,57.7,55.2,29.92,South,186,0.0,6.0,91,0.01,,,0.07,meteohub,2013-04-01 00:59:00,
2013-03-31 20:04:00,57.9,55.2,29.92,South,186,0.0,0.0,91,0.01,,,0.07,meteohub,2013-04-01 01:04:00,
2013-03-31 20:09:00,58.1,55.4,29.92,South,186,0.0,1.0,91,0.01,,,0.07,meteohub,2013-04-01 01:09:00,
2013-03-31 20:14:00,58.3,55.6,29.92,South,186,0.0,1.0,91,0.01,,,0.07,meteohub,2013-04-01 01:14:00,
2013-03-31 20:19:00,58.3,55.6,29.92,South,186,0.0,1.0,91,0.01,,,0.07,meteohub,2013-04-01 01:19:00,
2013-03-31 20:24:00,58.5,55.8,29.92,South,186,0.0,1.0,91,0.01,,,0.07,meteohub,2013-04-01 01:24:00,
2013-03-31 20:29:00,58.5,55.8,29.93,South,186,0.0,1.0,91,0.00,,,0.07,meteohub,2013-04-01 01:29:00,
2013-03-31 20:34:00,58.5,55.8,29.94,South,186,2.0,2.0,91,0.00,,,0.07,meteohub,2013-04-01 01:34:00,
2013-03-31 20:39:00,58.6,55.9,29.94,South,186,3.0,3.0,91,0.00,,,0.07,meteohub,2013-04-01 01:39:00,
2013-03-31 20:44:00,58.6,55.9,29.93,South,186,2.0,7.0,91,0.01,,,0.08,meteohub,2013-04-01 01:44:00,
2013-03-31 20:49:00,58.6,55.9,29.94,South,186,4.0,7.0,91,0.01,,,0.08,meteohub,2013-04-01 01:49:00,
2013-03-31 20:54:00,58.6,55.9,29.94,South,187,1.0,7.0,91,0.01,,,0.08,meteohub,2013-04-01 01:54:00,
2013-03-31 20:59:00,58.6,55.9,29.94,South,187,0.0,6.0,91,0.01,,,0.08,meteohub,2013-04-01 01:59:00,
2013-03-31 21:05:00,58.6,55.9,29.93,South,187,0.0,6.0,91,0.01,,,0.08,meteohub,2013-04-01 02:05:00,
2013-03-31 21:10:00,58.5,55.8,29.93,South,187,0.0,6.0,91,0.01,,,0.08,meteohub,2013-04-01 02:10:00,
2013-03-31 21:15:00,58.5,55.8,29.93,South,187,0.0,3.0,91,0.01,,,0.08,meteohub,2013-04-01 02:15:00,
2013-03-31 21:20:00,58.5,55.8,29.93,South,187,0.0,2.0,91,0.01,,,0.08,meteohub,2013-04-01 02:20:00,
2013-03-31 21:25:00,58.5,55.8,29.94,South,187,0.0,0.0,91,0.01,,,0.08,meteohub,2013-04-01 02:25:00,
2013-03-31 21:30:00,58.3,55.6,29.94,South,187,0.0,0.0,91,0.01,,,0.08,meteohub,2013-04-01 02:30:00,
2013-03-31 21:35:00,58.3,55.6,29.94,South,187,0.0,0.0,91,0.01,,,0.08,meteohub,2013-04-01 02:35:00,
2013-03-31 21:40:00,58.3,55.6,29.94,South,187,0.0,0.0,91,0.01,,,0.08,meteohub,2013-04-01 02:40:00,
2013-03-31 21:45:00,58.1,55.4,29.94,South,187,0.0,0.0,91,0.00,,,0.08,meteohub,2013-04-01 02:45:00,
2013-03-31 21:50:00,58.3,55.9,29.94,South,187,0.0,0.0,92,0.00,,,0.09,meteohub,2013-04-01 02:50:00,
2013-03-31 21:55:00,58.3,55.9,29.94,South,187,0.0,0.0,92,0.01,,,0.09,meteohub,2013-04-01 02:55:00,
2013-03-31 22:00:00,58.5,56.1,29.94,South,187,0.0,1.0,92,0.01,,,0.09,meteohub,2013-04-01 03:00:00,
2013-03-31 22:05:00,58.3,55.9,29.94,South,187,0.0,1.0,92,0.01,,,0.09,meteohub,2013-04-01 03:05:00,
2013-03-31 22:10:00,58.3,55.9,29.94,South,187,0.0,1.0,92,0.01,,,0.09,meteohub,2013-04-01 03:10:00,
2013-03-31 22:15:00,58.1,55.8,29.94,South,187,0.0,0.0,92,0.01,,,0.09,meteohub,2013-04-01 03:15:00,
2013-03-31 22:20:00,57.9,55.6,29.94,South,187,0.0,0.0,92,0.01,,,0.09,meteohub,2013-04-01 03:20:00,
2013-03-31 22:25:00,57.9,55.6,29.94,South,187,0.0,0.0,92,0.01,,,0.09,meteohub,2013-04-01 03:25:00,
2013-03-31 22:30:00,57.9,55.6,29.94,South,187,0.0,0.0,92,0.02,,,0.10,meteohub,2013-04-01 03:30:00,
2013-03-31 22:35:00,57.9,55.6,29.94,South,187,0.0,0.0,92,0.02,,,0.10,meteohub,2013-04-01 03:35:00,
2013-03-31 22:40:00,58.1,55.8,29.94,SSE,154,0.0,0.0,92,0.02,,,0.10,meteohub,2013-04-01 03:40:00,
2013-03-31 22:45:00,58.3,55.9,29.94,ESE,121,2.0,0.0,92,0.02,,,0.10,meteohub,2013-04-01 03:45:00,
2013-03-31 22:50:00,57.9,55.6,29.94,ESE,121,2.0,4.0,92,0.01,,,0.10,meteohub,2013-04-01 03:50:00,
2013-03-31 22:55:00,57.9,55.6,29.94,ESE,121,2.0,4.0,92,0.01,,,0.10,meteohub,2013-04-01 03:55:00,
2013-03-31 23:00:00,58.3,55.9,29.95,ENE,69,4.0,4.0,92,0.01,,,0.10,meteohub,2013-04-01 04:00:00,
2013-03-31 23:05:00,58.3,55.9,29.94,ENE,68,4.0,5.0,92,0.01,,,0.10,meteohub,2013-04-01 04:05:00,
2013-03-31 23:10:00,58.3,55.9,29.94,NNE,19,3.0,5.0,92,0.01,,,0.10,meteohub,2013-04-01 04:10:00,
2013-03-31 23:12:00,58.3,55.9,29.95,NNE,19,3.0,5.0,92,0.01,,,0.10,meteohub,2013-04-01 04:12:00,
2013-03-31 23:17:00,57.9,55.6,29.95,NNE,19,4.0,6.0,92,0.01,,,0.10,meteohub,2013-04-01 04:17:00,
2013-03-31 23:22:00,57.9,55.6,29.95,NNE,18,4.0,6.0,92,0.01,,,0.10,meteohub,2013-04-01 04:22:00,
2013-03-31 23:27:00,57.9,55.6,29.95,NNE,18,4.0,6.0,92,0.00,,,0.10,meteohub,2013-04-01 04:27:00,
2013-03-31 23:32:00,57.9,55.6,29.95,NNE,18,0.0,5.0,92,0.01,,,0.11,meteohub,2013-04-01 04:32:00,
2013-03-31 23:37:00,57.9,55.6,29.95,NNE,18,0.0,5.0,92,0.01,,,0.11,meteohub,2013-04-01 04:37:00,
2013-03-31 23:42:00,57.9,55.6,29.95,NNE,18,0.0,5.0,92,0.01,,,0.11,meteohub,2013-04-01 04:42:00,
2013-03-31 23:47:00,57.9,55.6,29.95,NNE,18,0.0,3.0,92,0.01,,,0.11,meteohub,2013-04-01 04:47:00,
2013-03-31 23:52:00,57.9,55.6,29.94,NNE,18,0.0,2.0,92,0.01,,,0.11,meteohub,2013-04-01 04:52:00,
2013-03-31 23:57:00,57.9,55.6,29.95,NNE,18,0.0,1.0,92,0.01,,,0.11,meteohub,2013-04-01 04:57:00,